sensor_id;sensor_type;location;lat;lon;timestamp;P1;durP1;ratioP1;P2;durP2;ratioP2
57720;SDS011;43562;43.064;0.160;2023-04-24T00:00:11;1.42;;;1.30;;
57720;SDS011;43562;43.064;0.160;2023-04-24T00:02:39;2.97;;;1.10;;
57720;SDS011;43562;43.064;0.160;2023-04-24T00:05:06;1.52;;;1.40;;
57720;SDS011;43562;43.064;0.160;2023-04-24T00:07:32;1.00;;;1.00;;
57720;SDS011;43562;43.064;0.160;2023-04-24T00:09:58;1.05;;;1.00;;
57720;SDS011;43562;43.064;0.160;2023-04-24T00:12:25;1.65;;;1.42;;
57720;SDS011;43562;43.064;0.160;2023-04-24T00:14:51;2.47;;;1.27;;
57720;SDS011;43562;43.064;0.160;2023-04-24T00:17:18;2.08;;;1.80;;
57720;SDS011;43562;43.064;0.160;2023-04-24T00:19:47;1.60;;;1.40;;
57720;SDS011;43562;43.064;0.160;2023-04-24T00:22:13;1.30;;;1.20;;
57720;SDS011;43562;43.064;0.160;2023-04-24T00:24:40;3.08;;;1.83;;
57720;SDS011;43562;43.064;0.160;2023-04-24T00:27:06;11.10;;;5.80;;
57720;SDS011;43562;43.064;0.160;2023-04-24T00:29:32;2.38;;;1.95;;
57720;SDS011;43562;43.064;0.160;2023-04-24T00:31:58;1.50;;;1.40;;
57720;SDS011;43562;43.064;0.160;2023-04-24T00:34:24;1.42;;;1.33;;
57720;SDS011;43562;43.064;0.160;2023-04-24T00:36:50;1.60;;;1.50;;
57720;SDS011;43562;43.064;0.160;2023-04-24T00:39:20;1.40;;;1.30;;
57720;SDS011;43562;43.064;0.160;2023-04-24T00:41:46;5.47;;;3.42;;
57720;SDS011;43562;43.064;0.160;2023-04-24T00:44:13;2.97;;;1.58;;
57720;SDS011;43562;43.064;0.160;2023-04-24T00:46:40;1.75;;;1.65;;
57720;SDS011;43562;43.064;0.160;2023-04-24T00:49:06;1.52;;;1.42;;
57720;SDS011;43562;43.064;0.160;2023-04-24T00:51:32;6.65;;;2.63;;
57720;SDS011;43562;43.064;0.160;2023-04-24T00:53:59;6.63;;;3.58;;
57720;SDS011;43562;43.064;0.160;2023-04-24T00:56:26;2.17;;;1.98;;
57720;SDS011;43562;43.064;0.160;2023-04-24T00:58:52;2.08;;;1.48;;
57720;SDS011;43562;43.064;0.160;2023-04-24T01:01:21;2.53;;;1.80;;
57720;SDS011;43562;43.064;0.160;2023-04-24T01:03:48;2.55;;;1.92;;
57720;SDS011;43562;43.064;0.160;2023-04-24T01:06:16;3.63;;;1.75;;
57720;SDS011;43562;43.064;0.160;2023-04-24T01:08:42;1.00;;;1.00;;
57720;SDS011;43562;43.064;0.160;2023-04-24T01:11:09;1.55;;;1.40;;
57720;SDS011;43562;43.064;0.160;2023-04-24T01:13:35;3.38;;;2.45;;
57720;SDS011;43562;43.064;0.160;2023-04-24T01:16:01;5.47;;;1.92;;
57720;SDS011;43562;43.064;0.160;2023-04-24T01:18:27;1.38;;;1.27;;
57720;SDS011;43562;43.064;0.160;2023-04-24T01:20:54;1.20;;;1.00;;
57720;SDS011;43562;43.064;0.160;2023-04-24T01:23:22;1.40;;;1.20;;
57720;SDS011;43562;43.064;0.160;2023-04-24T01:25:49;1.20;;;1.10;;
57720;SDS011;43562;43.064;0.160;2023-04-24T01:28:15;0.80;;;0.80;;
57720;SDS011;43562;43.064;0.160;2023-04-24T01:30:42;0.95;;;0.95;;
57720;SDS011;43562;43.064;0.160;2023-04-24T01:33:08;0.98;;;0.98;;
57720;SDS011;43562;43.064;0.160;2023-04-24T01:35:35;2.22;;;1.45;;
57720;SDS011;43562;43.064;0.160;2023-04-24T01:38:02;2.70;;;1.60;;
57720;SDS011;43562;43.064;0.160;2023-04-24T01:40:28;1.33;;;1.23;;
57720;SDS011;43562;43.064;0.160;2023-04-24T01:42:54;1.88;;;1.55;;
57720;SDS011;43562;43.064;0.160;2023-04-24T01:45:21;4.70;;;2.08;;
57720;SDS011;43562;43.064;0.160;2023-04-24T01:47:47;5.07;;;2.88;;
57720;SDS011;43562;43.064;0.160;2023-04-24T01:50:14;9.27;;;3.42;;
57720;SDS011;43562;43.064;0.160;2023-04-24T01:52:40;4.60;;;3.08;;
57720;SDS011;43562;43.064;0.160;2023-04-24T01:55:06;3.65;;;2.38;;
57720;SDS011;43562;43.064;0.160;2023-04-24T01:57:33;2.03;;;1.90;;
57720;SDS011;43562;43.064;0.160;2023-04-24T01:59:59;2.97;;;1.30;;
57720;SDS011;43562;43.064;0.160;2023-04-24T02:02:25;1.58;;;1.48;;
57720;SDS011;43562;43.064;0.160;2023-04-24T02:04:55;3.45;;;2.97;;
57720;SDS011;43562;43.064;0.160;2023-04-24T02:07:21;2.28;;;2.13;;
57720;SDS011;43562;43.064;0.160;2023-04-24T02:09:47;4.57;;;2.42;;
57720;SDS011;43562;43.064;0.160;2023-04-24T02:12:13;2.58;;;2.47;;
57720;SDS011;43562;43.064;0.160;2023-04-24T02:14:39;2.58;;;2.38;;
57720;SDS011;43562;43.064;0.160;2023-04-24T02:17:07;4.10;;;2.42;;
57720;SDS011;43562;43.064;0.160;2023-04-24T02:19:33;2.17;;;2.00;;
57720;SDS011;43562;43.064;0.160;2023-04-24T02:22:00;2.45;;;2.33;;
57720;SDS011;43562;43.064;0.160;2023-04-24T02:24:26;1.92;;;1.83;;
57720;SDS011;43562;43.064;0.160;2023-04-24T02:26:52;2.60;;;2.50;;
57720;SDS011;43562;43.064;0.160;2023-04-24T02:29:18;3.20;;;2.05;;
57720;SDS011;43562;43.064;0.160;2023-04-24T02:31:44;2.70;;;2.50;;
57720;SDS011;43562;43.064;0.160;2023-04-24T02:34:10;2.72;;;2.63;;
57720;SDS011;43562;43.064;0.160;2023-04-24T02:36:36;3.08;;;2.97;;
57720;SDS011;43562;43.064;0.160;2023-04-24T02:39:02;3.90;;;3.70;;
57720;SDS011;43562;43.064;0.160;2023-04-24T02:41:28;3.33;;;3.20;;
57720;SDS011;43562;43.064;0.160;2023-04-24T02:43:57;2.28;;;1.83;;
57720;SDS011;43562;43.064;0.160;2023-04-24T02:46:23;2.35;;;1.85;;
57720;SDS011;43562;43.064;0.160;2023-04-24T02:48:49;3.53;;;1.67;;
57720;SDS011;43562;43.064;0.160;2023-04-24T02:51:15;1.80;;;1.70;;
57720;SDS011;43562;43.064;0.160;2023-04-24T02:53:41;4.20;;;1.40;;
57720;SDS011;43562;43.064;0.160;2023-04-24T02:56:08;1.58;;;1.48;;
57720;SDS011;43562;43.064;0.160;2023-04-24T02:58:37;2.38;;;2.17;;
57720;SDS011;43562;43.064;0.160;2023-04-24T03:01:03;1.35;;;1.25;;
57720;SDS011;43562;43.064;0.160;2023-04-24T03:03:30;4.38;;;4.18;;
57720;SDS011;43562;43.064;0.160;2023-04-24T03:05:56;3.72;;;3.63;;
57720;SDS011;43562;43.064;0.160;2023-04-24T03:08:22;3.72;;;3.53;;
57720;SDS011;43562;43.064;0.160;2023-04-24T03:10:48;3.58;;;3.47;;
57720;SDS011;43562;43.064;0.160;2023-04-24T03:13:15;4.60;;;4.40;;
57720;SDS011;43562;43.064;0.160;2023-04-24T03:15:41;4.03;;;3.83;;
57720;SDS011;43562;43.064;0.160;2023-04-24T03:18:08;1.73;;;1.63;;
57720;SDS011;43562;43.064;0.160;2023-04-24T03:20:34;2.55;;;2.35;;
57720;SDS011;43562;43.064;0.160;2023-04-24T03:23:01;1.30;;;1.30;;
57720;SDS011;43562;43.064;0.160;2023-04-24T03:25:28;1.95;;;1.85;;
57720;SDS011;43562;43.064;0.160;2023-04-24T03:27:54;1.70;;;1.60;;
57720;SDS011;43562;43.064;0.160;2023-04-24T03:30:20;1.42;;;1.33;;
57720;SDS011;43562;43.064;0.160;2023-04-24T03:32:46;2.72;;;1.83;;
57720;SDS011;43562;43.064;0.160;2023-04-24T03:35:12;1.55;;;1.45;;
57720;SDS011;43562;43.064;0.160;2023-04-24T03:37:38;1.65;;;1.50;;
57720;SDS011;43562;43.064;0.160;2023-04-24T03:40:04;1.48;;;1.38;;
57720;SDS011;43562;43.064;0.160;2023-04-24T03:42:32;1.50;;;1.40;;
57720;SDS011;43562;43.064;0.160;2023-04-24T03:44:58;2.78;;;2.20;;
57720;SDS011;43562;43.064;0.160;2023-04-24T03:47:24;2.42;;;1.50;;
57720;SDS011;43562;43.064;0.160;2023-04-24T03:49:50;1.60;;;1.50;;
57720;SDS011;43562;43.064;0.160;2023-04-24T03:52:17;2.03;;;1.35;;
57720;SDS011;43562;43.064;0.160;2023-04-24T03:54:43;2.65;;;1.20;;
57720;SDS011;43562;43.064;0.160;2023-04-24T03:57:09;2.28;;;1.20;;
57720;SDS011;43562;43.064;0.160;2023-04-24T03:59:35;1.70;;;1.60;;
57720;SDS011;43562;43.064;0.160;2023-04-24T04:02:01;1.27;;;1.20;;
57720;SDS011;43562;43.064;0.160;2023-04-24T04:04:27;1.25;;;1.25;;
57720;SDS011;43562;43.064;0.160;2023-04-24T04:06:53;1.30;;;1.30;;
57720;SDS011;43562;43.064;0.160;2023-04-24T04:09:19;1.13;;;1.10;;
57720;SDS011;43562;43.064;0.160;2023-04-24T04:11:45;1.40;;;1.30;;
57720;SDS011;43562;43.064;0.160;2023-04-24T04:14:11;3.22;;;1.60;;
57720;SDS011;43562;43.064;0.160;2023-04-24T04:16:37;1.20;;;1.20;;
57720;SDS011;43562;43.064;0.160;2023-04-24T04:19:03;1.20;;;1.20;;
57720;SDS011;43562;43.064;0.160;2023-04-24T04:21:30;1.33;;;1.30;;
57720;SDS011;43562;43.064;0.160;2023-04-24T04:23:57;1.70;;;1.60;;
57720;SDS011;43562;43.064;0.160;2023-04-24T04:26:23;1.35;;;1.35;;
57720;SDS011;43562;43.064;0.160;2023-04-24T04:28:51;1.30;;;1.30;;
57720;SDS011;43562;43.064;0.160;2023-04-24T04:31:17;1.48;;;1.38;;
57720;SDS011;43562;43.064;0.160;2023-04-24T04:33:44;1.40;;;1.30;;
57720;SDS011;43562;43.064;0.160;2023-04-24T04:36:10;1.35;;;1.25;;
57720;SDS011;43562;43.064;0.160;2023-04-24T04:38:37;1.65;;;1.52;;
57720;SDS011;43562;43.064;0.160;2023-04-24T04:41:03;1.52;;;1.42;;
57720;SDS011;43562;43.064;0.160;2023-04-24T04:43:30;1.50;;;1.50;;
57720;SDS011;43562;43.064;0.160;2023-04-24T04:45:57;1.33;;;1.23;;
57720;SDS011;43562;43.064;0.160;2023-04-24T04:48:25;1.48;;;1.38;;
57720;SDS011;43562;43.064;0.160;2023-04-24T04:50:52;1.70;;;1.60;;
57720;SDS011;43562;43.064;0.160;2023-04-24T04:53:18;4.00;;;1.73;;
57720;SDS011;43562;43.064;0.160;2023-04-24T04:55:44;1.55;;;1.45;;
57720;SDS011;43562;43.064;0.160;2023-04-24T04:58:11;1.38;;;1.33;;
57720;SDS011;43562;43.064;0.160;2023-04-24T05:00:37;1.63;;;1.52;;
57720;SDS011;43562;43.064;0.160;2023-04-24T05:03:04;1.70;;;1.60;;
57720;SDS011;43562;43.064;0.160;2023-04-24T05:05:30;1.88;;;1.70;;
57720;SDS011;43562;43.064;0.160;2023-04-24T05:07:56;1.67;;;1.58;;
57720;SDS011;43562;43.064;0.160;2023-04-24T05:10:22;1.83;;;1.58;;
57720;SDS011;43562;43.064;0.160;2023-04-24T05:12:48;2.08;;;1.88;;
57720;SDS011;43562;43.064;0.160;2023-04-24T05:15:14;1.90;;;1.80;;
57720;SDS011;43562;43.064;0.160;2023-04-24T05:17:40;1.77;;;1.67;;
57720;SDS011;43562;43.064;0.160;2023-04-24T05:20:06;2.42;;;1.67;;
57720;SDS011;43562;43.064;0.160;2023-04-24T05:22:33;2.72;;;2.47;;
57720;SDS011;43562;43.064;0.160;2023-04-24T05:24:59;2.17;;;2.08;;
57720;SDS011;43562;43.064;0.160;2023-04-24T05:27:25;3.03;;;2.35;;
57720;SDS011;43562;43.064;0.160;2023-04-24T05:29:51;1.90;;;1.80;;
57720;SDS011;43562;43.064;0.160;2023-04-24T05:32:17;1.85;;;1.75;;
57720;SDS011;43562;43.064;0.160;2023-04-24T05:34:44;4.35;;;1.73;;
57720;SDS011;43562;43.064;0.160;2023-04-24T05:37:10;2.15;;;1.80;;
57720;SDS011;43562;43.064;0.160;2023-04-24T05:39:36;2.20;;;2.00;;
57720;SDS011;43562;43.064;0.160;2023-04-24T05:42:02;2.60;;;2.45;;
57720;SDS011;43562;43.064;0.160;2023-04-24T05:44:29;1.70;;;1.60;;
57720;SDS011;43562;43.064;0.160;2023-04-24T05:46:56;1.90;;;1.80;;
57720;SDS011;43562;43.064;0.160;2023-04-24T05:49:22;2.45;;;1.95;;
57720;SDS011;43562;43.064;0.160;2023-04-24T05:51:48;2.08;;;1.95;;
57720;SDS011;43562;43.064;0.160;2023-04-24T05:54:14;1.80;;;1.70;;
57720;SDS011;43562;43.064;0.160;2023-04-24T05:56:40;1.95;;;1.70;;
57720;SDS011;43562;43.064;0.160;2023-04-24T05:59:07;1.83;;;1.73;;
57720;SDS011;43562;43.064;0.160;2023-04-24T06:01:33;1.95;;;1.85;;
57720;SDS011;43562;43.064;0.160;2023-04-24T06:04:01;3.90;;;1.77;;
57720;SDS011;43562;43.064;0.160;2023-04-24T06:06:27;1.70;;;1.60;;
57720;SDS011;43562;43.064;0.160;2023-04-24T06:08:53;1.40;;;1.40;;
57720;SDS011;43562;43.064;0.160;2023-04-24T06:11:20;1.60;;;1.50;;
57720;SDS011;43562;43.064;0.160;2023-04-24T06:13:47;2.25;;;1.95;;
57720;SDS011;43562;43.064;0.160;2023-04-24T06:16:14;1.45;;;1.45;;
57720;SDS011;43562;43.064;0.160;2023-04-24T06:18:40;2.00;;;1.80;;
57720;SDS011;43562;43.064;0.160;2023-04-24T06:21:06;3.13;;;1.58;;
57720;SDS011;43562;43.064;0.160;2023-04-24T06:23:32;1.20;;;1.20;;
57720;SDS011;43562;43.064;0.160;2023-04-24T06:25:58;3.30;;;1.48;;
57720;SDS011;43562;43.064;0.160;2023-04-24T06:28:25;3.47;;;1.77;;
57720;SDS011;43562;43.064;0.160;2023-04-24T06:30:52;1.65;;;1.55;;
57720;SDS011;43562;43.064;0.160;2023-04-24T06:33:18;1.63;;;1.52;;
57720;SDS011;43562;43.064;0.160;2023-04-24T06:35:44;1.42;;;1.33;;
57720;SDS011;43562;43.064;0.160;2023-04-24T06:38:10;2.15;;;1.27;;
57720;SDS011;43562;43.064;0.160;2023-04-24T06:40:36;1.30;;;1.30;;
57720;SDS011;43562;43.064;0.160;2023-04-24T06:43:02;1.30;;;1.20;;
57720;SDS011;43562;43.064;0.160;2023-04-24T06:45:29;1.40;;;1.40;;
57720;SDS011;43562;43.064;0.160;2023-04-24T06:47:55;1.23;;;1.13;;
57720;SDS011;43562;43.064;0.160;2023-04-24T06:50:21;1.25;;;1.10;;
57720;SDS011;43562;43.064;0.160;2023-04-24T06:52:47;1.30;;;1.20;;
57720;SDS011;43562;43.064;0.160;2023-04-24T06:55:13;6.53;;;1.15;;
57720;SDS011;43562;43.064;0.160;2023-04-24T06:57:41;1.25;;;1.20;;
57720;SDS011;43562;43.064;0.160;2023-04-24T07:00:07;0.93;;;0.90;;
57720;SDS011;43562;43.064;0.160;2023-04-24T07:02:34;1.00;;;1.00;;
57720;SDS011;43562;43.064;0.160;2023-04-24T07:05:00;0.80;;;0.80;;
57720;SDS011;43562;43.064;0.160;2023-04-24T07:07:27;0.90;;;0.90;;
57720;SDS011;43562;43.064;0.160;2023-04-24T07:09:53;3.30;;;1.65;;
57720;SDS011;43562;43.064;0.160;2023-04-24T07:12:21;1.17;;;1.05;;
57720;SDS011;43562;43.064;0.160;2023-04-24T07:14:47;1.00;;;1.00;;
57720;SDS011;43562;43.064;0.160;2023-04-24T07:17:13;1.35;;;0.88;;
57720;SDS011;43562;43.064;0.160;2023-04-24T07:19:39;1.00;;;1.00;;
57720;SDS011;43562;43.064;0.160;2023-04-24T07:22:06;1.25;;;1.15;;
57720;SDS011;43562;43.064;0.160;2023-04-24T07:24:32;1.02;;;1.00;;
57720;SDS011;43562;43.064;0.160;2023-04-24T07:26:58;0.88;;;0.82;;
57720;SDS011;43562;43.064;0.160;2023-04-24T07:29:26;0.85;;;0.85;;
57720;SDS011;43562;43.064;0.160;2023-04-24T07:31:52;1.10;;;0.80;;
57720;SDS011;43562;43.064;0.160;2023-04-24T07:34:19;1.40;;;0.90;;
57720;SDS011;43562;43.064;0.160;2023-04-24T07:36:45;1.10;;;1.10;;
57720;SDS011;43562;43.064;0.160;2023-04-24T07:39:12;1.05;;;1.05;;
57720;SDS011;43562;43.064;0.160;2023-04-24T07:41:38;0.80;;;0.80;;
57720;SDS011;43562;43.064;0.160;2023-04-24T07:44:04;1.08;;;0.90;;
57720;SDS011;43562;43.064;0.160;2023-04-24T07:46:30;0.75;;;0.75;;
57720;SDS011;43562;43.064;0.160;2023-04-24T07:48:57;0.80;;;0.80;;
57720;SDS011;43562;43.064;0.160;2023-04-24T07:51:24;0.60;;;0.60;;
57720;SDS011;43562;43.064;0.160;2023-04-24T07:53:52;1.30;;;0.77;;
57720;SDS011;43562;43.064;0.160;2023-04-24T07:56:20;0.60;;;0.60;;
57720;SDS011;43562;43.064;0.160;2023-04-24T07:58:46;1.25;;;0.73;;
57720;SDS011;43562;43.064;0.160;2023-04-24T08:01:12;0.80;;;0.80;;
57720;SDS011;43562;43.064;0.160;2023-04-24T08:03:38;1.83;;;1.45;;
57720;SDS011;43562;43.064;0.160;2023-04-24T08:06:04;0.90;;;0.80;;
57720;SDS011;43562;43.064;0.160;2023-04-24T08:08:30;1.00;;;1.00;;
57720;SDS011;43562;43.064;0.160;2023-04-24T08:10:57;1.15;;;0.70;;
57720;SDS011;43562;43.064;0.160;2023-04-24T08:13:23;1.02;;;0.82;;
57720;SDS011;43562;43.064;0.160;2023-04-24T08:15:49;0.88;;;0.88;;
57720;SDS011;43562;43.064;0.160;2023-04-24T08:18:15;2.10;;;1.60;;
57720;SDS011;43562;43.064;0.160;2023-04-24T08:20:41;3.38;;;2.17;;
57720;SDS011;43562;43.064;0.160;2023-04-24T08:23:08;1.80;;;1.75;;
57720;SDS011;43562;43.064;0.160;2023-04-24T08:25:34;1.70;;;1.70;;
57720;SDS011;43562;43.064;0.160;2023-04-24T08:28:01;1.92;;;1.63;;
57720;SDS011;43562;43.064;0.160;2023-04-24T08:30:28;1.88;;;1.63;;
57720;SDS011;43562;43.064;0.160;2023-04-24T08:32:54;1.98;;;1.88;;
57720;SDS011;43562;43.064;0.160;2023-04-24T08:35:20;1.40;;;1.40;;
57720;SDS011;43562;43.064;0.160;2023-04-24T08:37:47;1.60;;;1.60;;
57720;SDS011;43562;43.064;0.160;2023-04-24T08:40:14;1.00;;;1.00;;
57720;SDS011;43562;43.064;0.160;2023-04-24T08:42:43;0.80;;;0.80;;
57720;SDS011;43562;43.064;0.160;2023-04-24T08:45:11;1.20;;;1.20;;
57720;SDS011;43562;43.064;0.160;2023-04-24T08:47:40;1.20;;;1.10;;
57720;SDS011;43562;43.064;0.160;2023-04-24T08:50:07;1.23;;;1.00;;
57720;SDS011;43562;43.064;0.160;2023-04-24T08:52:34;1.90;;;0.93;;
57720;SDS011;43562;43.064;0.160;2023-04-24T08:55:01;1.33;;;1.23;;
57720;SDS011;43562;43.064;0.160;2023-04-24T08:57:28;1.10;;;1.00;;
57720;SDS011;43562;43.064;0.160;2023-04-24T08:59:54;1.80;;;1.70;;
57720;SDS011;43562;43.064;0.160;2023-04-24T09:02:20;1.20;;;1.20;;
57720;SDS011;43562;43.064;0.160;2023-04-24T09:04:47;1.48;;;1.40;;
57720;SDS011;43562;43.064;0.160;2023-04-24T09:07:14;0.50;;;0.50;;
57720;SDS011;43562;43.064;0.160;2023-04-24T09:09:40;0.60;;;0.60;;
57720;SDS011;43562;43.064;0.160;2023-04-24T09:12:07;0.60;;;0.60;;
57720;SDS011;43562;43.064;0.160;2023-04-24T09:14:35;0.55;;;0.55;;
57720;SDS011;43562;43.064;0.160;2023-04-24T09:17:03;1.42;;;0.80;;
57720;SDS011;43562;43.064;0.160;2023-04-24T09:19:29;0.60;;;0.60;;
57720;SDS011;43562;43.064;0.160;2023-04-24T09:21:55;2.47;;;0.70;;
57720;SDS011;43562;43.064;0.160;2023-04-24T09:24:22;0.70;;;0.70;;
57720;SDS011;43562;43.064;0.160;2023-04-24T09:26:48;0.70;;;0.70;;
57720;SDS011;43562;43.064;0.160;2023-04-24T09:29:15;0.70;;;0.70;;
57720;SDS011;43562;43.064;0.160;2023-04-24T09:31:42;0.63;;;0.50;;
57720;SDS011;43562;43.064;0.160;2023-04-24T09:34:08;0.90;;;0.60;;
57720;SDS011;43562;43.064;0.160;2023-04-24T09:39:07;2.38;;;0.57;;
57720;SDS011;43562;43.064;0.160;2023-04-24T09:41:35;0.95;;;0.50;;
57720;SDS011;43562;43.064;0.160;2023-04-24T09:44:18;1.55;;;0.60;;
57720;SDS011;43562;43.064;0.160;2023-04-24T09:46:51;0.25;;;0.25;;
57720;SDS011;43562;43.064;0.160;2023-04-24T09:49:36;0.50;;;0.50;;
57720;SDS011;43562;43.064;0.160;2023-04-24T09:54:30;1.95;;;0.50;;
57720;SDS011;43562;43.064;0.160;2023-04-24T09:56:56;0.40;;;0.40;;
57720;SDS011;43562;43.064;0.160;2023-04-24T09:59:22;2.25;;;0.50;;
57720;SDS011;43562;43.064;0.160;2023-04-24T10:01:48;0.55;;;0.45;;
57720;SDS011;43562;43.064;0.160;2023-04-24T10:04:19;0.75;;;0.75;;
57720;SDS011;43562;43.064;0.160;2023-04-24T10:06:46;0.70;;;0.70;;
57720;SDS011;43562;43.064;0.160;2023-04-24T10:09:14;0.90;;;0.90;;
57720;SDS011;43562;43.064;0.160;2023-04-24T10:11:41;2.17;;;1.00;;
57720;SDS011;43562;43.064;0.160;2023-04-24T10:14:09;1.92;;;0.70;;
57720;SDS011;43562;43.064;0.160;2023-04-24T10:16:36;2.28;;;0.70;;
57720;SDS011;43562;43.064;0.160;2023-04-24T10:19:02;0.57;;;0.57;;
57720;SDS011;43562;43.064;0.160;2023-04-24T10:21:28;1.17;;;0.60;;
57720;SDS011;43562;43.064;0.160;2023-04-24T10:23:55;0.98;;;0.70;;
57720;SDS011;43562;43.064;0.160;2023-04-24T10:26:21;1.30;;;0.60;;
57720;SDS011;43562;43.064;0.160;2023-04-24T10:28:48;1.65;;;0.88;;
57720;SDS011;43562;43.064;0.160;2023-04-24T10:31:14;2.97;;;0.75;;
57720;SDS011;43562;43.064;0.160;2023-04-24T10:33:41;0.80;;;0.80;;
57720;SDS011;43562;43.064;0.160;2023-04-24T10:36:09;1.90;;;0.90;;
57720;SDS011;43562;43.064;0.160;2023-04-24T10:38:35;0.80;;;0.80;;
57720;SDS011;43562;43.064;0.160;2023-04-24T10:41:09;0.60;;;0.60;;
57720;SDS011;43562;43.064;0.160;2023-04-24T10:43:40;2.22;;;1.17;;
57720;SDS011;43562;43.064;0.160;2023-04-24T10:46:07;2.63;;;1.20;;
57720;SDS011;43562;43.064;0.160;2023-04-24T10:48:35;0.88;;;0.85;;
57720;SDS011;43562;43.064;0.160;2023-04-24T10:51:01;1.85;;;0.90;;
57720;SDS011;43562;43.064;0.160;2023-04-24T10:53:28;1.05;;;1.00;;
57720;SDS011;43562;43.064;0.160;2023-04-24T10:56:05;0.50;;;0.50;;
57720;SDS011;43562;43.064;0.160;2023-04-24T11:01:05;1.38;;;0.50;;
57720;SDS011;43562;43.064;0.160;2023-04-24T11:03:32;0.65;;;0.45;;
57720;SDS011;43562;43.064;0.160;2023-04-24T11:06:00;0.65;;;0.65;;
57720;SDS011;43562;43.064;0.160;2023-04-24T11:08:28;0.47;;;0.43;;
57720;SDS011;43562;43.064;0.160;2023-04-24T11:10:59;1.83;;;0.50;;
57720;SDS011;43562;43.064;0.160;2023-04-24T11:13:27;0.40;;;0.40;;
57720;SDS011;43562;43.064;0.160;2023-04-24T11:16:12;0.57;;;0.57;;
57720;SDS011;43562;43.064;0.160;2023-04-24T11:18:39;0.60;;;0.50;;
57720;SDS011;43562;43.064;0.160;2023-04-24T11:21:11;1.65;;;0.50;;
57720;SDS011;43562;43.064;0.160;2023-04-24T11:23:37;1.60;;;0.70;;
57720;SDS011;43562;43.064;0.160;2023-04-24T11:26:10;1.20;;;0.60;;
57720;SDS011;43562;43.064;0.160;2023-04-24T11:28:37;1.38;;;0.40;;
57720;SDS011;43562;43.064;0.160;2023-04-24T11:31:48;1.98;;;0.40;;
57720;SDS011;43562;43.064;0.160;2023-04-24T11:33:49;2.10;;;0.98;;
57720;SDS011;43562;43.064;0.160;2023-04-24T11:36:15;0.73;;;0.50;;
57720;SDS011;43562;43.064;0.160;2023-04-24T11:38:41;2.00;;;0.70;;
57720;SDS011;43562;43.064;0.160;2023-04-24T11:41:07;2.08;;;0.50;;
57720;SDS011;43562;43.064;0.160;2023-04-24T11:43:34;0.73;;;0.60;;
57720;SDS011;43562;43.064;0.160;2023-04-24T11:46:00;1.23;;;0.57;;
57720;SDS011;43562;43.064;0.160;2023-04-24T11:48:26;0.80;;;0.70;;
57720;SDS011;43562;43.064;0.160;2023-04-24T11:50:52;1.13;;;0.73;;
57720;SDS011;43562;43.064;0.160;2023-04-24T11:53:19;0.80;;;0.80;;
57720;SDS011;43562;43.064;0.160;2023-04-24T11:55:46;1.27;;;0.93;;
57720;SDS011;43562;43.064;0.160;2023-04-24T11:58:12;0.70;;;0.70;;
57720;SDS011;43562;43.064;0.160;2023-04-24T12:00:38;4.20;;;1.00;;
57720;SDS011;43562;43.064;0.160;2023-04-24T12:03:06;1.10;;;1.00;;
57720;SDS011;43562;43.064;0.160;2023-04-24T12:05:32;1.27;;;0.75;;
57720;SDS011;43562;43.064;0.160;2023-04-24T12:07:59;3.03;;;0.75;;
57720;SDS011;43562;43.064;0.160;2023-04-24T12:10:26;1.00;;;1.00;;
57720;SDS011;43562;43.064;0.160;2023-04-24T12:12:53;1.02;;;0.70;;
57720;SDS011;43562;43.064;0.160;2023-04-24T12:15:20;0.77;;;0.77;;
57720;SDS011;43562;43.064;0.160;2023-04-24T12:17:46;0.82;;;0.82;;
57720;SDS011;43562;43.064;0.160;2023-04-24T12:20:13;3.65;;;1.30;;
57720;SDS011;43562;43.064;0.160;2023-04-24T12:22:46;1.13;;;0.88;;
57720;SDS011;43562;43.064;0.160;2023-04-24T12:25:13;1.70;;;1.00;;
57720;SDS011;43562;43.064;0.160;2023-04-24T12:27:40;1.80;;;0.80;;
57720;SDS011;43562;43.064;0.160;2023-04-24T12:30:10;0.93;;;0.80;;
57720;SDS011;43562;43.064;0.160;2023-04-24T12:32:40;1.00;;;0.85;;
57720;SDS011;43562;43.064;0.160;2023-04-24T12:35:06;2.08;;;0.80;;
57720;SDS011;43562;43.064;0.160;2023-04-24T12:37:33;1.38;;;0.98;;
57720;SDS011;43562;43.064;0.160;2023-04-24T12:42:28;1.02;;;0.82;;
57720;SDS011;43562;43.064;0.160;2023-04-24T12:44:58;1.85;;;1.20;;
57720;SDS011;43562;43.064;0.160;2023-04-24T12:47:24;1.27;;;0.63;;
57720;SDS011;43562;43.064;0.160;2023-04-24T12:49:51;1.25;;;1.00;;
57720;SDS011;43562;43.064;0.160;2023-04-24T12:52:23;1.58;;;0.70;;
57720;SDS011;43562;43.064;0.160;2023-04-24T12:54:52;2.08;;;0.80;;
57720;SDS011;43562;43.064;0.160;2023-04-24T12:57:18;1.00;;;1.00;;
57720;SDS011;43562;43.064;0.160;2023-04-24T12:59:44;1.15;;;1.05;;
57720;SDS011;43562;43.064;0.160;2023-04-24T13:02:10;0.80;;;0.70;;
57720;SDS011;43562;43.064;0.160;2023-04-24T13:04:37;0.90;;;0.90;;
57720;SDS011;43562;43.064;0.160;2023-04-24T13:07:03;2.97;;;1.10;;
57720;SDS011;43562;43.064;0.160;2023-04-24T13:09:29;1.20;;;1.15;;
57720;SDS011;43562;43.064;0.160;2023-04-24T13:11:55;2.45;;;1.02;;
57720;SDS011;43562;43.064;0.160;2023-04-24T13:14:22;0.95;;;0.95;;
57720;SDS011;43562;43.064;0.160;2023-04-24T13:16:48;0.90;;;0.90;;
57720;SDS011;43562;43.064;0.160;2023-04-24T13:19:15;1.42;;;0.80;;
57720;SDS011;43562;43.064;0.160;2023-04-24T13:21:41;0.80;;;0.80;;
57720;SDS011;43562;43.064;0.160;2023-04-24T13:24:07;1.58;;;1.05;;
57720;SDS011;43562;43.064;0.160;2023-04-24T13:26:35;1.25;;;0.82;;
57720;SDS011;43562;43.064;0.160;2023-04-24T13:29:01;2.78;;;1.00;;
57720;SDS011;43562;43.064;0.160;2023-04-24T13:31:28;2.45;;;0.88;;
57720;SDS011;43562;43.064;0.160;2023-04-24T13:33:54;1.20;;;1.10;;
57720;SDS011;43562;43.064;0.160;2023-04-24T13:36:20;1.30;;;1.15;;
57720;SDS011;43562;43.064;0.160;2023-04-24T13:38:46;2.80;;;1.10;;
57720;SDS011;43562;43.064;0.160;2023-04-24T13:41:12;2.95;;;1.38;;
57720;SDS011;43562;43.064;0.160;2023-04-24T13:43:38;0.85;;;0.85;;
57720;SDS011;43562;43.064;0.160;2023-04-24T13:46:06;1.15;;;1.08;;
57720;SDS011;43562;43.064;0.160;2023-04-24T13:48:32;1.95;;;0.90;;
57720;SDS011;43562;43.064;0.160;2023-04-24T13:50:58;13.20;;;2.97;;
57720;SDS011;43562;43.064;0.160;2023-04-24T13:53:25;1.35;;;1.10;;
57720;SDS011;43562;43.064;0.160;2023-04-24T13:55:51;1.17;;;1.00;;
57720;SDS011;43562;43.064;0.160;2023-04-24T13:58:17;1.23;;;1.10;;
57720;SDS011;43562;43.064;0.160;2023-04-24T14:00:43;0.80;;;0.60;;
57720;SDS011;43562;43.064;0.160;2023-04-24T14:03:09;1.92;;;0.98;;
57720;SDS011;43562;43.064;0.160;2023-04-24T14:05:36;1.05;;;0.95;;
57720;SDS011;43562;43.064;0.160;2023-04-24T14:08:02;0.77;;;0.77;;
57720;SDS011;43562;43.064;0.160;2023-04-24T14:10:28;0.80;;;0.80;;
57720;SDS011;43562;43.064;0.160;2023-04-24T14:12:54;1.92;;;0.90;;
57720;SDS011;43562;43.064;0.160;2023-04-24T14:15:21;2.28;;;0.85;;
57720;SDS011;43562;43.064;0.160;2023-04-24T14:17:47;1.08;;;0.80;;
57720;SDS011;43562;43.064;0.160;2023-04-24T14:20:14;1.85;;;1.58;;
57720;SDS011;43562;43.064;0.160;2023-04-24T14:22:41;1.88;;;1.70;;
57720;SDS011;43562;43.064;0.160;2023-04-24T14:25:07;1.42;;;1.00;;
57720;SDS011;43562;43.064;0.160;2023-04-24T14:27:33;1.08;;;1.08;;
57720;SDS011;43562;43.064;0.160;2023-04-24T14:30:00;1.75;;;1.13;;
57720;SDS011;43562;43.064;0.160;2023-04-24T14:32:26;1.55;;;1.10;;
57720;SDS011;43562;43.064;0.160;2023-04-24T14:34:53;1.80;;;1.25;;
57720;SDS011;43562;43.064;0.160;2023-04-24T14:37:19;2.60;;;1.45;;
57720;SDS011;43562;43.064;0.160;2023-04-24T14:39:45;1.42;;;1.33;;
57720;SDS011;43562;43.064;0.160;2023-04-24T14:42:11;1.50;;;1.40;;
57720;SDS011;43562;43.064;0.160;2023-04-24T14:44:38;1.52;;;1.30;;
57720;SDS011;43562;43.064;0.160;2023-04-24T14:47:04;1.38;;;1.20;;
57720;SDS011;43562;43.064;0.160;2023-04-24T14:49:31;2.75;;;1.60;;
57720;SDS011;43562;43.064;0.160;2023-04-24T14:51:57;1.80;;;1.42;;
57720;SDS011;43562;43.064;0.160;2023-04-24T14:54:23;2.55;;;1.40;;